createdAt,value
2022-09-21T00:01:32.122Z,1.73
2022-09-21T00:06:53.985Z,0.38
2022-09-21T00:12:16.822Z,0.22
2022-09-21T00:17:39.424Z,0.52
2022-09-21T00:23:01.253Z,1.27
2022-09-21T00:28:23.068Z,0.90
2022-09-21T00:33:45.014Z,0.47
2022-09-21T00:39:06.891Z,0.82
2022-09-21T00:44:32.841Z,0.85
2022-09-21T00:49:56.677Z,1.00
2022-09-21T00:55:38.021Z,0.80
2022-09-21T01:01:01.259Z,0.65
2022-09-21T01:06:24.786Z,0.95
2022-09-21T01:11:52.171Z,1.63
2022-09-21T01:17:35.212Z,0.50
2022-09-21T01:23:05.690Z,0.25
2022-09-21T01:29:21.456Z,0.77
2022-09-21T01:34:51.444Z,0.55
2022-09-21T01:40:22.430Z,1.90
2022-09-21T01:45:52.220Z,0.43
2022-09-21T01:51:16.701Z,0.40
2022-09-21T01:56:52.297Z,0.70
2022-09-21T02:02:18.909Z,0.43
2022-09-21T02:07:40.778Z,0.90
2022-09-21T02:13:05.758Z,0.50
2022-09-21T02:18:43.211Z,0.65
2022-09-21T02:24:22.875Z,0.63
2022-09-21T02:30:25.174Z,0.20
2022-09-21T02:36:01.435Z,2.63
2022-09-21T02:41:28.996Z,0.77
2022-09-21T02:46:55.356Z,0.30
2022-09-21T02:52:18.364Z,0.38
2022-09-21T02:57:41.182Z,1.13
2022-09-21T03:03:19.344Z,2.42
2022-09-21T03:08:41.651Z,0.50
2022-09-21T03:14:08.762Z,0.50
2022-09-21T03:19:30.434Z,0.75
2022-09-21T03:24:52.216Z,0.30
2022-09-21T03:30:14.362Z,0.20
2022-09-21T03:35:36.071Z,1.77
2022-09-21T03:40:58.391Z,1.85
2022-09-21T03:46:20.084Z,0.50
2022-09-21T03:51:45.548Z,0.30
2022-09-21T03:57:07.267Z,0.60
2022-09-21T04:02:28.937Z,0.57
2022-09-21T04:07:50.915Z,1.15
2022-09-21T04:13:16.692Z,0.55
2022-09-21T04:18:38.838Z,0.60
2022-09-21T04:24:02.116Z,0.35
2022-09-21T04:29:23.783Z,0.35
2022-09-21T04:34:45.414Z,1.58
2022-09-21T04:40:08.066Z,0.50
2022-09-21T04:45:30.140Z,1.08
2022-09-21T04:50:51.855Z,0.95
2022-09-21T04:56:16.047Z,0.50
2022-09-21T05:01:37.812Z,0.50
2022-09-21T05:06:59.586Z,0.60
2022-09-21T05:12:21.276Z,1.58
2022-09-21T05:17:42.938Z,15.50
2022-09-21T05:23:04.674Z,15.60
2022-09-21T05:28:27.316Z,24.95
2022-09-21T05:33:54.724Z,24.90
2022-09-21T05:39:16.764Z,9.93
2022-09-21T05:44:38.764Z,19.55
2022-09-21T05:50:20.185Z,19.02
2022-09-21T05:56:05.174Z,8.00
2022-09-21T06:02:04.673Z,35.30
2022-09-21T06:07:26.344Z,15.90
2022-09-21T06:12:48.086Z,14.82
2022-09-21T06:18:15.477Z,12.55
2022-09-21T06:23:39.349Z,12.35
2022-09-21T06:29:01.014Z,11.00
2022-09-21T06:34:22.723Z,14.02
2022-09-21T06:39:44.402Z,12.25
2022-09-21T06:45:06.684Z,11.80
2022-09-21T06:50:28.597Z,15.50
2022-09-21T06:55:50.232Z,7.68
2022-09-21T07:01:13.997Z,8.63
2022-09-21T07:06:35.867Z,5.47
2022-09-21T07:11:58.281Z,5.80
2022-09-21T07:17:20.123Z,14.25
2022-09-21T07:22:41.807Z,11.75
2022-09-21T07:28:03.624Z,17.17
2022-09-21T07:33:26.323Z,15.38
2022-09-21T07:38:48.009Z,10.38
2022-09-21T07:44:09.722Z,14.70
2022-09-21T07:49:31.365Z,12.75
2022-09-21T07:54:53.027Z,6.45
2022-09-21T08:00:15.333Z,13.50
2022-09-21T08:05:36.953Z,5.70
2022-09-21T08:11:05.762Z,9.93
2022-09-21T08:16:29.261Z,11.10
2022-09-21T08:21:56.262Z,22.75
2022-09-21T08:27:20.437Z,9.80
2022-09-21T08:32:51.075Z,7.00
2022-09-21T08:38:13.440Z,10.05
2022-09-21T08:43:44.263Z,7.38
2022-09-21T08:49:30.168Z,11.90
2022-09-21T08:54:51.767Z,5.78
2022-09-21T09:00:18.574Z,16.67
2022-09-21T09:06:09.167Z,5.10
2022-09-21T09:11:44.889Z,7.32
2022-09-21T09:17:33.551Z,5.22
2022-09-21T09:23:08.095Z,7.15
2022-09-21T09:28:38.822Z,4.25
2022-09-21T09:34:11.643Z,4.60
2022-09-21T09:39:33.365Z,8.93
2022-09-21T09:45:01.191Z,4.32
2022-09-21T09:50:25.575Z,6.30
2022-09-21T09:55:50.160Z,7.78
2022-09-21T10:01:43.232Z,6.30
2022-09-21T10:07:05.103Z,8.55
2022-09-21T10:12:28.089Z,5.35
2022-09-21T10:18:16.883Z,12.43
2022-09-21T10:23:39.005Z,6.68
2022-09-21T10:29:03.080Z,5.30
2022-09-21T10:34:28.010Z,5.45
2022-09-21T10:39:49.836Z,3.42
2022-09-21T10:45:47.925Z,6.50
2022-09-21T10:51:27.590Z,3.35
2022-09-21T10:57:07.268Z,4.90
2022-09-21T11:02:35.409Z,2.53
2022-09-21T11:08:18.386Z,5.15
2022-09-21T11:13:50.057Z,6.70
2022-09-21T11:19:30.342Z,8.93
2022-09-21T11:25:07.428Z,2.20
2022-09-21T11:30:43.307Z,3.67
2022-09-21T11:41:50.105Z,1.88
2022-09-21T11:47:20.579Z,4.03
2022-09-21T11:53:07.431Z,7.53
2022-09-21T11:58:57.920Z,3.83
2022-09-21T12:04:42.198Z,2.67
2022-09-21T12:10:27.203Z,6.82
2022-09-21T12:16:03.206Z,5.75
2022-09-21T12:32:47.607Z,24.52
2022-09-21T12:38:29.368Z,22.00
2022-09-21T12:44:03.548Z,7.25
2022-09-21T12:49:31.663Z,23.70
2022-09-21T12:54:53.915Z,8.80
2022-09-21T13:00:22.385Z,8.32
2022-09-21T13:05:46.808Z,9.15
2022-09-21T13:11:09.531Z,8.93
2022-09-21T13:16:39.572Z,5.38
2022-09-21T13:22:14.687Z,3.35
2022-09-21T13:28:13.708Z,9.07
2022-09-21T13:33:40.114Z,4.13
2022-09-21T13:39:15.354Z,4.28
2022-09-21T13:44:44.204Z,9.80
2022-09-21T13:50:45.346Z,8.25
2022-09-21T13:56:20.400Z,2.58
2022-09-21T14:01:47.174Z,4.03
2022-09-21T14:07:09.938Z,3.88
2022-09-21T14:12:42.029Z,3.60
2022-09-21T14:18:17.062Z,5.88
2022-09-21T14:23:39.666Z,7.10
2022-09-21T14:29:26.350Z,7.28
2022-09-21T14:34:50.466Z,3.90
2022-09-21T14:40:29.090Z,4.90
2022-09-21T14:45:56.586Z,6.80
2022-09-21T14:52:24.777Z,3.17
2022-09-21T14:58:08.842Z,2.47
2022-09-21T15:03:38.732Z,2.55
2022-09-21T15:09:43.498Z,5.47
2022-09-21T15:15:26.769Z,6.28
2022-09-21T15:21:01.402Z,3.83
2022-09-21T15:26:29.239Z,4.53
2022-09-21T15:31:51.178Z,3.83
2022-09-21T15:37:19.421Z,2.17
2022-09-21T15:43:09.719Z,3.20
2022-09-21T15:48:34.767Z,3.78
2022-09-21T15:54:01.729Z,1.08
2022-09-21T15:59:23.667Z,3.97
2022-09-21T16:04:51.050Z,7.88
2022-09-21T16:10:30.787Z,3.55
2022-09-21T16:16:13.311Z,4.47
2022-09-21T16:21:38.268Z,2.63
2022-09-21T16:27:03.518Z,12.43
2022-09-21T16:32:33.062Z,3.67
2022-09-21T16:37:59.142Z,3.72
2022-09-21T16:43:23.347Z,0.82
2022-09-21T16:48:45.296Z,3.42
2022-09-21T16:54:08.648Z,11.32
2022-09-21T16:59:30.719Z,23.00
2022-09-21T17:04:52.360Z,8.30
2022-09-21T17:10:16.602Z,9.32
2022-09-21T17:15:43.697Z,14.40
2022-09-21T17:21:05.590Z,6.03
2022-09-21T17:26:28.207Z,11.15
2022-09-21T17:31:53.686Z,7.80
2022-09-21T17:37:15.609Z,5.38
2022-09-21T17:42:40.397Z,5.35
2022-09-21T17:48:02.921Z,4.77
2022-09-21T17:53:34.631Z,4.40
2022-09-21T17:59:04.911Z,5.75
2022-09-21T18:04:28.863Z,6.35
2022-09-21T18:09:51.032Z,7.13
2022-09-21T18:15:30.943Z,5.25
2022-09-21T18:21:18.536Z,3.90
2022-09-21T18:26:40.829Z,7.15
2022-09-21T18:32:11.152Z,2.15
2022-09-21T18:37:41.618Z,3.15
2022-09-21T18:43:18.950Z,5.00
2022-09-21T18:48:51.134Z,5.82
2022-09-21T18:54:25.755Z,4.68
2022-09-21T18:59:48.013Z,9.57
2022-09-21T19:05:13.111Z,5.68
2022-09-21T19:10:45.125Z,7.93
2022-09-21T19:16:24.203Z,3.60
2022-09-21T19:21:54.262Z,10.25
2022-09-21T19:27:29.618Z,12.25
2022-09-21T19:32:53.964Z,20.53
2022-09-21T19:38:15.688Z,10.73
2022-09-21T19:43:55.854Z,6.50
2022-09-21T19:49:19.876Z,5.07
2022-09-21T19:55:00.402Z,17.50
2022-09-21T20:00:22.931Z,13.75
2022-09-21T20:06:04.834Z,7.07
2022-09-21T20:11:29.169Z,9.05
2022-09-21T20:16:54.610Z,7.40
2022-09-21T20:22:19.664Z,5.45
2022-09-21T20:27:46.540Z,7.22
2022-09-21T20:33:16.051Z,3.40
2022-09-21T20:38:37.714Z,6.07
2022-09-21T20:43:59.517Z,2.85
2022-09-21T20:49:21.194Z,2.80
2022-09-21T20:54:49.199Z,2.00
2022-09-21T21:00:15.117Z,4.03
2022-09-21T21:10:58.376Z,3.42
2022-09-21T21:16:20.066Z,2.90
2022-09-21T21:21:41.694Z,1.25
2022-09-21T21:27:03.910Z,3.28
2022-09-21T21:32:26.825Z,7.85
2022-09-21T21:37:48.539Z,1.65
2022-09-21T21:43:10.154Z,2.78
2022-09-21T21:48:31.916Z,2.85
2022-09-21T21:53:53.610Z,1.67
2022-09-21T21:59:17.938Z,2.42
2022-09-21T22:04:39.785Z,1.50
2022-09-21T22:10:01.446Z,1.25
2022-09-21T22:15:23.322Z,1.38
2022-09-21T22:20:46.220Z,1.17
2022-09-21T22:26:09.447Z,0.80
2022-09-21T22:31:37.261Z,4.97
2022-09-21T22:36:59.626Z,1.05
2022-09-21T22:42:21.427Z,1.67
2022-09-21T22:47:43.099Z,1.08
2022-09-21T22:53:04.797Z,0.70
2022-09-21T22:58:26.465Z,0.60
2022-09-21T23:03:51.207Z,1.27
2022-09-21T23:09:17.084Z,1.83
2022-09-21T23:14:38.734Z,0.73
2022-09-21T23:20:00.448Z,0.80
2022-09-21T23:25:22.627Z,2.47
2022-09-21T23:30:44.275Z,1.13
2022-09-21T23:36:07.943Z,1.60
2022-09-21T23:41:35.004Z,0.93
2022-09-21T23:46:56.729Z,1.77
2022-09-21T23:52:18.399Z,2.47
2022-09-21T23:57:40.013Z,1.00
